ENFL

Florø Airport

Florø, Norway
METAR ENFL 241450Z 23012KT 5000 -DZ FEW002 SCT005 BKN007 11/10 Q1020
Observed Flight Rules
Jun-24 @ 14:50 UTC (14 minutes ago) Instrument Flight Rules
Wind Visibility Clouds Conditions
230° at 12 knots 5,005 meters
  • Few at 200' AGL
  • Scattered at 500' AGL
  • Broken at 700' AGL
  • Light Drizzle
Temperatures Readings
Current 11°C / 52°F
Dewpoint 10°C / 50°F
Humidity 94%
Altimeter 30.12" Hg
Pressure 1020 hPa
Elevation 9
METAR ENFL 241450Z 23012KT 5000 -DZ FEW002 SCT005 BKN007 11/10 Q1020
Observed Flight Rules
Jun-24 @ 14:50 UTC
(14 minutes ago)
IFR
Wind Visibility
230° at 12 knots 5,005 meters
Clouds
  • Few at 200' AGL
  • Scattered at 500' AGL
  • Broken at 700' AGL
Conditions
  • Light Drizzle
Temperature Dewpoint
11°C / 52°F 10°C / 50°F
Humidity Altimeter Pressure
94% 30.12" Hg 1020 hPa